createdAt,value
2023-03-28T00:00:58.325Z,9.56
2023-03-28T00:03:27.472Z,9.58
2023-03-28T00:06:02.558Z,9.65
2023-03-28T00:08:30.219Z,9.67
2023-03-28T00:11:09.482Z,9.74
2023-03-28T00:13:37.098Z,9.71
2023-03-28T00:16:08.849Z,9.77
2023-03-28T00:18:39.977Z,9.78
2023-03-28T00:21:29.566Z,9.82
2023-03-28T00:24:02.502Z,9.79
2023-03-28T00:26:32.630Z,9.81
2023-03-28T00:29:01.646Z,9.86
2023-03-28T00:31:30.712Z,9.79
2023-03-28T00:33:58.410Z,9.81
2023-03-28T00:36:29.876Z,9.77
2023-03-28T00:38:57.999Z,9.76
2023-03-28T00:41:31.420Z,9.76
2023-03-28T00:43:59.897Z,9.72
2023-03-28T00:46:38.611Z,9.75
2023-03-28T00:49:27.957Z,9.74
2023-03-28T00:52:01.790Z,9.71
2023-03-28T00:54:33.464Z,9.78
2023-03-28T00:57:03.975Z,9.83
2023-03-28T00:59:34.504Z,9.86
2023-03-28T01:02:02.219Z,9.86
2023-03-28T01:04:38.660Z,9.86
2023-03-28T01:07:07.168Z,9.83
2023-03-28T01:09:38.078Z,9.87
2023-03-28T01:12:05.928Z,9.82
2023-03-28T01:14:33.466Z,9.92
2023-03-28T01:17:03.158Z,9.96
2023-03-28T01:19:32.447Z,9.93
2023-03-28T01:22:02.699Z,9.95
2023-03-28T01:24:52.153Z,9.96
2023-03-28T01:27:41.513Z,9.99
2023-03-28T01:30:32.075Z,9.96
2023-03-28T01:33:39.098Z,9.87
2023-03-28T01:36:36.044Z,9.88
2023-03-28T01:39:23.568Z,9.90
2023-03-28T01:41:57.024Z,9.89
2023-03-28T01:44:50.766Z,9.90
2023-03-28T01:47:40.540Z,9.90
2023-03-28T01:50:23.445Z,9.83
2023-03-28T01:53:31.158Z,9.80
2023-03-28T01:56:22.413Z,9.60
2023-03-28T01:59:20.662Z,9.51
2023-03-28T02:02:27.658Z,9.02
2023-03-28T02:05:04.669Z,8.80
2023-03-28T02:07:38.692Z,8.49
2023-03-28T02:10:12.391Z,8.36
2023-03-28T02:13:21.541Z,8.20
2023-03-28T02:16:13.238Z,8.17
2023-03-28T02:19:00.155Z,8.16
2023-03-28T02:22:15.169Z,8.25
2023-03-28T02:25:09.505Z,8.28
2023-03-28T02:28:03.004Z,8.30
2023-03-28T02:30:52.025Z,8.35
2023-03-28T02:33:40.260Z,8.35
2023-03-28T02:36:28.909Z,8.39
2023-03-28T02:39:06.641Z,8.41
2023-03-28T02:41:49.302Z,8.44
2023-03-28T02:44:38.541Z,8.47
2023-03-28T02:47:20.803Z,8.45
2023-03-28T02:50:28.679Z,8.45
2023-03-28T02:53:27.311Z,8.47
2023-03-28T02:56:16.445Z,8.48
2023-03-28T02:59:07.608Z,8.50
2023-03-28T03:01:38.445Z,8.52
2023-03-28T03:04:06.683Z,8.55
2023-03-28T03:06:37.378Z,8.56
2023-03-28T03:09:05.305Z,8.51
2023-03-28T03:11:32.868Z,8.57
2023-03-28T03:14:00.708Z,8.57
2023-03-28T03:16:30.002Z,8.60
2023-03-28T03:18:58.811Z,8.59
2023-03-28T03:21:26.937Z,8.58
2023-03-28T03:23:54.345Z,8.56
2023-03-28T03:26:22.775Z,8.53
2023-03-28T03:29:01.774Z,8.51
2023-03-28T03:31:32.480Z,8.48
2023-03-28T03:34:05.708Z,8.51
2023-03-28T03:36:38.474Z,8.47
2023-03-28T03:39:07.849Z,8.47
2023-03-28T03:41:35.946Z,8.46
2023-03-28T03:44:06.341Z,8.47
2023-03-28T03:46:33.780Z,8.44
2023-03-28T03:49:02.712Z,8.38
2023-03-28T03:51:30.085Z,8.37
2023-03-28T03:53:59.235Z,8.42
2023-03-28T03:56:38.035Z,8.37
2023-03-28T03:59:05.967Z,8.41
2023-03-28T04:01:36.201Z,8.39
2023-03-28T04:04:32.664Z,8.34
2023-03-28T04:07:18.692Z,8.35
2023-03-28T04:09:51.692Z,8.35
2023-03-28T04:12:19.389Z,8.36
2023-03-28T04:14:49.759Z,8.34
2023-03-28T04:17:35.527Z,8.38
2023-03-28T04:20:16.044Z,8.38
2023-03-28T04:23:06.260Z,8.35
2023-03-28T04:25:35.356Z,8.37
2023-03-28T04:28:10.978Z,8.39
2023-03-28T04:30:46.915Z,8.40
2023-03-28T04:33:40.369Z,8.41
2023-03-28T04:36:09.840Z,8.42
2023-03-28T04:38:37.729Z,8.43
2023-03-28T04:41:22.020Z,8.46
2023-03-28T04:44:04.891Z,8.47
2023-03-28T04:46:39.017Z,8.51
2023-03-28T04:49:12.474Z,8.52
2023-03-28T04:51:39.844Z,8.55
2023-03-28T04:54:07.615Z,8.55
2023-03-28T04:56:51.457Z,8.59
2023-03-28T04:59:27.293Z,8.59
2023-03-28T05:01:56.130Z,8.47
2023-03-28T05:04:26.967Z,8.38
2023-03-28T05:06:56.011Z,8.29
2023-03-28T05:09:24.121Z,8.29
2023-03-28T05:11:51.640Z,8.36
2023-03-28T05:14:19.825Z,8.37
2023-03-28T05:16:50.866Z,8.41
2023-03-28T05:19:47.684Z,8.34
2023-03-28T05:22:17.845Z,8.34
2023-03-28T05:24:45.160Z,8.38
2023-03-28T05:27:18.918Z,8.34
2023-03-28T05:29:47.949Z,8.21
2023-03-28T05:32:17.458Z,8.11
2023-03-28T05:34:46.224Z,8.06
2023-03-28T05:37:14.419Z,8.03
2023-03-28T05:39:54.133Z,7.96
2023-03-28T05:42:21.956Z,7.89
2023-03-28T05:44:49.917Z,7.70
2023-03-28T05:47:36.520Z,7.69
2023-03-28T05:50:04.923Z,7.53
2023-03-28T05:52:32.842Z,7.57
2023-03-28T05:55:05.862Z,7.63
2023-03-28T05:57:33.961Z,7.68
2023-03-28T06:00:15.304Z,7.70
2023-03-28T06:02:46.727Z,7.83
2023-03-28T06:05:18.567Z,8.03
2023-03-28T06:07:46.563Z,8.18
2023-03-28T06:10:17.623Z,8.33
2023-03-28T06:13:06.094Z,8.61
2023-03-28T06:15:34.308Z,8.79
2023-03-28T06:18:01.711Z,8.91
2023-03-28T06:20:29.178Z,9.10
2023-03-28T06:22:56.660Z,9.25
2023-03-28T06:25:23.870Z,9.40
2023-03-28T06:27:51.573Z,9.45
2023-03-28T06:30:19.794Z,9.59
2023-03-28T06:32:51.220Z,9.73
2023-03-28T06:35:19.339Z,9.81
2023-03-28T06:37:46.878Z,9.84
2023-03-28T06:40:18.791Z,9.88
2023-03-28T06:42:46.447Z,10.10
2023-03-28T06:45:20.494Z,10.13
2023-03-28T06:48:08.171Z,10.28
2023-03-28T06:51:08.729Z,10.36
2023-03-28T06:53:37.797Z,10.47
2023-03-28T06:56:07.334Z,10.55
2023-03-28T06:58:36.730Z,10.74
2023-03-28T07:01:11.252Z,10.84
2023-03-28T07:03:59.946Z,10.91
2023-03-28T07:06:28.463Z,10.89
2023-03-28T07:09:03.494Z,10.81
2023-03-28T07:11:51.045Z,10.95
2023-03-28T07:14:20.728Z,11.03
2023-03-28T07:16:49.495Z,11.12
2023-03-28T07:19:16.895Z,11.28
2023-03-28T07:21:48.524Z,11.31
2023-03-28T07:24:16.525Z,11.26
2023-03-28T07:27:15.404Z,11.35
2023-03-28T07:29:46.537Z,11.36
2023-03-28T07:32:14.558Z,11.20
2023-03-28T07:34:45.490Z,11.30
2023-03-28T07:37:19.247Z,11.34
2023-03-28T07:40:08.178Z,11.38
2023-03-28T07:42:38.629Z,11.37
2023-03-28T07:45:06.863Z,11.39
2023-03-28T07:47:34.587Z,11.37
2023-03-28T07:50:03.321Z,11.22
2023-03-28T07:52:30.826Z,11.24
2023-03-28T07:54:58.342Z,11.25
2023-03-28T07:57:28.100Z,11.15
2023-03-28T08:00:02.337Z,11.08
2023-03-28T08:02:44.681Z,11.02
2023-03-28T08:05:14.522Z,10.94
2023-03-28T08:07:46.404Z,10.87
2023-03-28T08:10:14.577Z,10.75
2023-03-28T08:12:42.180Z,10.74
2023-03-28T08:15:10.537Z,10.66
2023-03-28T08:17:38.384Z,10.63
2023-03-28T08:20:12.094Z,10.64
2023-03-28T08:23:09.369Z,10.55
2023-03-28T08:25:44.729Z,10.54
2023-03-28T08:28:14.964Z,10.51
2023-03-28T08:30:42.619Z,10.46
2023-03-28T08:33:10.837Z,10.47
2023-03-28T08:35:38.528Z,10.52
2023-03-28T08:38:14.460Z,10.49
2023-03-28T08:40:48.148Z,10.46
2023-03-28T08:43:29.698Z,10.39
2023-03-28T08:46:00.383Z,10.34
2023-03-28T08:48:43.578Z,10.35
2023-03-28T08:51:35.736Z,10.30
2023-03-28T08:54:47.588Z,10.23
2023-03-28T08:57:42.871Z,10.19
2023-03-28T09:00:27.833Z,10.19
2023-03-28T09:02:56.465Z,10.19
2023-03-28T09:05:46.006Z,10.20
2023-03-28T09:08:22.989Z,10.18
2023-03-28T09:11:24.598Z,10.13
2023-03-28T09:14:23.568Z,10.11
2023-03-28T09:17:04.238Z,10.14
2023-03-28T09:19:55.564Z,10.12
2023-03-28T09:23:10.559Z,10.11
2023-03-28T09:26:17.928Z,10.15
2023-03-28T09:29:06.927Z,10.21
2023-03-28T09:31:52.136Z,10.21
2023-03-28T09:34:27.826Z,10.23
2023-03-28T09:37:07.581Z,10.18
2023-03-28T09:39:49.927Z,10.19
2023-03-28T09:42:18.093Z,10.22
2023-03-28T09:45:00.385Z,10.28
2023-03-28T09:47:50.649Z,10.25
2023-03-28T09:50:21.882Z,10.24
2023-03-28T09:53:00.353Z,10.25
2023-03-28T09:55:32.002Z,10.26
2023-03-28T09:58:05.034Z,10.05
2023-03-28T10:00:47.989Z,10.04
2023-03-28T10:03:55.283Z,9.97
2023-03-28T10:06:39.855Z,9.91
2023-03-28T10:09:27.852Z,9.87
2023-03-28T10:12:09.932Z,9.88
2023-03-28T10:14:46.736Z,9.84
2023-03-28T10:17:44.361Z,9.81
2023-03-28T10:20:24.168Z,9.79
2023-03-28T10:22:57.348Z,9.70
2023-03-28T10:25:44.608Z,9.68
2023-03-28T10:28:19.006Z,9.69
2023-03-28T10:30:55.019Z,9.74
2023-03-28T10:33:34.418Z,9.83
2023-03-28T10:36:31.849Z,9.91
2023-03-28T10:39:21.167Z,10.03
2023-03-28T10:42:07.154Z,10.09
2023-03-28T10:45:07.416Z,10.20
2023-03-28T10:47:37.185Z,10.24
2023-03-28T10:50:42.822Z,10.28
2023-03-28T10:53:23.239Z,10.21
2023-03-28T10:56:07.117Z,10.15
2023-03-28T10:58:54.925Z,10.16
2023-03-28T11:01:41.422Z,10.14
2023-03-28T11:04:11.533Z,10.15
2023-03-28T11:06:58.650Z,10.24
2023-03-28T11:10:21.152Z,10.26
2023-03-28T11:13:42.979Z,10.25
2023-03-28T11:16:25.626Z,10.25
2023-03-28T11:19:56.100Z,10.28
2023-03-28T11:22:38.862Z,10.28
2023-03-28T11:25:44.653Z,10.26
2023-03-28T11:29:07.154Z,10.20
2023-03-28T11:31:53.357Z,9.80
2023-03-28T11:34:23.826Z,9.11
2023-03-28T11:37:04.863Z,8.67
2023-03-28T11:40:07.211Z,7.98
2023-03-28T11:42:58.995Z,7.58
2023-03-28T11:45:50.371Z,7.12
2023-03-28T11:48:50.594Z,6.75
2023-03-28T11:51:59.704Z,6.35
2023-03-28T11:54:40.016Z,6.20
2023-03-28T11:57:20.964Z,5.86
2023-03-28T12:00:14.809Z,5.66
2023-03-28T12:03:12.999Z,5.46
2023-03-28T12:06:04.967Z,5.19
2023-03-28T12:08:42.437Z,4.94
2023-03-28T12:11:24.716Z,4.84
2023-03-28T12:14:14.012Z,4.60
2023-03-28T12:16:51.650Z,4.46
2023-03-28T12:19:37.028Z,4.34
2023-03-28T12:22:30.802Z,4.19
2023-03-28T12:25:32.332Z,3.91
2023-03-28T12:28:12.986Z,3.70
2023-03-28T12:30:55.257Z,3.43
2023-03-28T12:33:44.843Z,3.33
2023-03-28T12:36:43.248Z,3.00
2023-03-28T12:39:41.672Z,2.78
2023-03-28T12:42:20.618Z,2.68
2023-03-28T12:45:00.763Z,2.50
2023-03-28T12:47:41.940Z,2.47
2023-03-28T12:50:18.019Z,2.30
2023-03-28T12:52:47.177Z,2.15
2023-03-28T12:55:47.004Z,2.11
2023-03-28T12:58:28.666Z,1.92
2023-03-28T13:01:07.957Z,1.89
2023-03-28T13:03:41.656Z,1.88
2023-03-28T13:06:30.943Z,1.89
2023-03-28T13:09:01.552Z,1.83
2023-03-28T13:11:55.837Z,1.74
2023-03-28T13:14:43.334Z,1.69
2023-03-28T13:17:24.892Z,1.69
2023-03-28T13:20:07.692Z,1.67
2023-03-28T13:22:50.309Z,1.66
2023-03-28T13:25:22.993Z,1.59
2023-03-28T13:27:56.484Z,1.63
2023-03-28T13:30:31.951Z,1.57
2023-03-28T13:33:04.313Z,1.54
2023-03-28T13:35:49.509Z,1.52
2023-03-28T13:38:29.627Z,1.48
2023-03-28T13:41:13.141Z,1.43
2023-03-28T13:43:51.484Z,1.44
2023-03-28T13:46:23.261Z,1.41
2023-03-28T13:48:55.960Z,1.39
2023-03-28T13:51:26.763Z,1.32
2023-03-28T13:53:54.533Z,1.29
2023-03-28T13:56:25.907Z,1.24
2023-03-28T13:58:55.838Z,1.20
2023-03-28T14:01:34.324Z,1.20
2023-03-28T14:04:02.264Z,1.19
2023-03-28T14:06:31.523Z,1.14
2023-03-28T14:09:02.773Z,1.08
2023-03-28T14:11:35.274Z,1.20
2023-03-28T14:14:15.932Z,1.21
2023-03-28T14:16:46.028Z,1.12
2023-03-28T14:19:21.712Z,1.18
2023-03-28T14:21:53.029Z,1.08
2023-03-28T14:24:26.978Z,1.04
2023-03-28T14:27:09.798Z,1.08
2023-03-28T14:29:55.405Z,1.10
2023-03-28T14:32:32.119Z,1.06
2023-03-28T14:35:20.874Z,1.08
2023-03-28T14:37:56.323Z,1.04
2023-03-28T14:40:24.082Z,1.05
2023-03-28T14:42:56.572Z,1.08
2023-03-28T14:45:26.822Z,0.97
2023-03-28T14:47:56.633Z,1.05
2023-03-28T14:50:31.446Z,0.99
2023-03-28T14:53:06.252Z,0.97
2023-03-28T14:55:38.073Z,0.88
2023-03-28T14:58:13.718Z,1.00
2023-03-28T15:00:43.551Z,0.91
2023-03-28T15:03:32.263Z,0.88
2023-03-28T15:06:00.799Z,0.85
2023-03-28T15:08:34.629Z,0.87
2023-03-28T15:11:30.252Z,0.84
2023-03-28T15:14:22.855Z,0.90
2023-03-28T15:16:50.191Z,0.75
2023-03-28T15:19:28.657Z,0.87
2023-03-28T15:22:00.877Z,0.76
2023-03-28T15:24:29.503Z,0.73
2023-03-28T15:27:02.039Z,0.79
2023-03-28T15:29:38.783Z,0.67
2023-03-28T15:32:14.678Z,0.69
2023-03-28T15:35:09.754Z,0.57
2023-03-28T15:37:44.459Z,0.49
2023-03-28T15:40:28.685Z,0.50
2023-03-28T15:42:57.662Z,0.41
2023-03-28T15:45:38.156Z,0.39
2023-03-28T15:48:06.294Z,0.43
2023-03-28T15:50:38.670Z,0.39
2023-03-28T15:53:13.263Z,0.32
2023-03-28T15:55:41.980Z,0.35
2023-03-28T15:58:19.367Z,0.28
2023-03-28T16:00:53.265Z,0.26
2023-03-28T16:03:20.802Z,0.14
2023-03-28T16:05:52.578Z,0.16
2023-03-28T16:08:32.076Z,0.05
2023-03-28T16:11:01.132Z,0.04
2023-03-28T16:13:38.315Z,0.11
2023-03-28T16:16:32.244Z,0.06
2023-03-28T16:19:30.608Z,0.00
2023-03-28T16:22:00.535Z,-0.06
2023-03-28T16:24:28.393Z,-0.12
2023-03-28T16:26:56.516Z,-0.16
2023-03-28T16:29:24.601Z,-0.25
2023-03-28T16:31:52.350Z,-0.29
2023-03-28T16:34:20.349Z,-0.18
2023-03-28T16:36:47.648Z,-0.32
2023-03-28T16:39:15.036Z,-0.32
2023-03-28T16:41:42.471Z,-0.33
2023-03-28T16:44:09.730Z,-0.41
2023-03-28T16:46:37.935Z,-0.39
2023-03-28T16:49:05.486Z,-0.37
2023-03-28T16:51:34.124Z,-0.38
2023-03-28T16:54:02.446Z,-0.35
2023-03-28T16:56:31.326Z,-0.33
2023-03-28T16:58:59.421Z,-0.43
2023-03-28T17:01:27.910Z,-0.46
2023-03-28T17:03:56.199Z,-0.44
2023-03-28T17:06:26.814Z,-0.37
2023-03-28T17:08:55.787Z,-0.49
2023-03-28T17:11:23.626Z,-0.55
2023-03-28T17:13:53.732Z,-0.47
2023-03-28T17:16:22.941Z,-0.44
2023-03-28T17:18:50.910Z,-0.57
2023-03-28T17:21:19.136Z,-0.55
2023-03-28T17:23:48.925Z,-0.78
2023-03-28T17:26:17.618Z,-0.78
2023-03-28T17:28:45.390Z,-0.61
2023-03-28T17:31:19.642Z,-0.62
2023-03-28T17:33:49.336Z,-0.66
2023-03-28T17:36:21.198Z,-0.71
2023-03-28T17:38:52.111Z,-0.64
2023-03-28T17:41:22.094Z,-0.79
2023-03-28T17:43:49.939Z,-0.78
2023-03-28T17:46:17.776Z,-0.95
2023-03-28T17:48:45.618Z,-0.90
2023-03-28T17:51:14.118Z,-1.01
2023-03-28T17:53:44.840Z,-1.01
2023-03-28T17:56:14.853Z,-0.92
2023-03-28T17:58:43.174Z,-0.99
2023-03-28T18:01:17.298Z,-0.90
2023-03-28T18:03:46.214Z,-0.92
2023-03-28T18:06:34.016Z,-0.96
2023-03-28T18:09:01.721Z,-0.91
2023-03-28T18:11:30.718Z,-0.98
2023-03-28T18:13:59.122Z,-0.98
2023-03-28T18:16:28.109Z,-0.91
2023-03-28T18:18:55.678Z,-0.96
2023-03-28T18:21:23.561Z,-1.03
2023-03-28T18:23:51.650Z,-1.04
2023-03-28T18:26:20.570Z,-1.12
2023-03-28T18:28:47.670Z,-1.04
2023-03-28T18:31:18.281Z,-1.03
2023-03-28T18:33:46.231Z,-1.16
2023-03-28T18:36:14.853Z,-1.12
2023-03-28T18:38:44.877Z,-1.17
2023-03-28T18:41:14.154Z,-1.16
2023-03-28T18:43:43.427Z,-1.12
2023-03-28T18:46:15.641Z,-1.13
2023-03-28T18:48:44.961Z,-1.18
2023-03-28T18:51:12.718Z,-1.13
2023-03-28T18:53:40.357Z,-1.14
2023-03-28T18:56:09.207Z,-1.14
2023-03-28T18:58:37.490Z,-1.16
2023-03-28T19:01:06.365Z,-1.15
2023-03-28T19:03:43.846Z,-1.15
2023-03-28T19:06:13.425Z,-1.17
2023-03-28T19:08:41.022Z,-1.18
2023-03-28T19:11:15.328Z,-1.32
2023-03-28T19:13:44.474Z,-1.32
2023-03-28T19:16:14.386Z,-1.20
2023-03-28T19:18:44.620Z,-1.18
2023-03-28T19:21:12.570Z,-1.18
2023-03-28T19:23:40.991Z,-1.19
2023-03-28T19:26:10.025Z,-1.15
2023-03-28T19:28:37.576Z,-1.23
2023-03-28T19:31:07.495Z,-0.96
2023-03-28T19:33:37.061Z,-1.02
2023-03-28T19:36:06.408Z,-1.00
2023-03-28T19:38:36.752Z,-0.98
2023-03-28T19:41:10.351Z,-1.14
2023-03-28T19:43:38.862Z,-1.18
2023-03-28T19:46:08.658Z,-1.07
2023-03-28T19:48:36.498Z,-1.11
2023-03-28T19:51:04.240Z,-1.08
2023-03-28T19:53:31.593Z,-1.12
2023-03-28T19:56:00.270Z,-1.16
2023-03-28T19:58:28.763Z,-1.06
2023-03-28T20:00:57.258Z,-1.10
2023-03-28T20:03:26.464Z,-0.97
2023-03-28T20:05:54.436Z,-1.08
2023-03-28T20:08:21.807Z,-1.02
2023-03-28T20:10:52.393Z,-0.96
2023-03-28T20:13:19.945Z,-1.00
2023-03-28T20:15:47.631Z,-0.90
2023-03-28T20:18:20.318Z,-0.89
2023-03-28T20:20:52.871Z,-0.87
2023-03-28T20:23:23.796Z,-0.90
2023-03-28T20:25:53.205Z,-0.89
2023-03-28T20:28:25.157Z,-0.84
2023-03-28T20:30:53.951Z,-0.86
2023-03-28T20:33:22.018Z,-0.87
2023-03-28T20:35:57.357Z,-0.77
2023-03-28T20:38:26.493Z,-0.81
2023-03-28T20:40:57.073Z,-0.81
2023-03-28T20:43:29.505Z,-0.79
2023-03-28T20:45:58.327Z,-0.81
2023-03-28T20:48:34.974Z,-0.84
2023-03-28T20:51:16.021Z,-0.86
2023-03-28T20:53:49.649Z,-0.78
2023-03-28T20:56:20.274Z,-0.76
2023-03-28T20:58:48.421Z,-0.71
2023-03-28T21:01:17.955Z,-0.73
2023-03-28T21:03:53.935Z,-0.71
2023-03-28T21:06:38.506Z,-0.63
2023-03-28T21:09:08.924Z,-0.66
2023-03-28T21:11:38.876Z,-0.61
2023-03-28T21:14:08.007Z,-0.63
2023-03-28T21:16:35.555Z,-0.54
2023-03-28T21:19:02.960Z,-0.58
2023-03-28T21:21:33.449Z,-0.51
2023-03-28T21:24:01.918Z,-0.50
2023-03-28T21:26:29.442Z,-0.46
2023-03-28T21:28:56.908Z,-0.44
2023-03-28T21:31:26.645Z,-0.46
2023-03-28T21:33:57.491Z,-0.46
2023-03-28T21:36:25.932Z,-0.44
2023-03-28T21:38:54.257Z,-0.43
2023-03-28T21:41:22.970Z,-0.32
2023-03-28T21:43:53.880Z,-0.34
2023-03-28T21:46:22.229Z,-0.41
2023-03-28T21:48:50.152Z,-0.42
2023-03-28T21:51:18.046Z,-0.43
2023-03-28T21:53:47.717Z,-0.39
2023-03-28T21:56:16.593Z,-0.37
2023-03-28T21:58:44.646Z,-0.41
2023-03-28T22:01:14.662Z,-0.36
2023-03-28T22:03:42.577Z,-0.44
2023-03-28T22:06:10.592Z,-0.40
2023-03-28T22:08:38.216Z,-0.45
2023-03-28T22:11:14.641Z,-0.41
2023-03-28T22:13:43.086Z,-0.37
2023-03-28T22:16:13.023Z,-0.43
2023-03-28T22:18:42.628Z,-0.42
2023-03-28T22:21:14.323Z,-0.46
2023-03-28T22:23:43.492Z,-0.43
2023-03-28T22:26:12.573Z,-0.47
2023-03-28T22:28:39.832Z,-0.44
2023-03-28T22:31:07.498Z,-0.52
2023-03-28T22:33:34.813Z,-0.51
2023-03-28T22:36:02.073Z,-0.46
2023-03-28T22:38:29.422Z,-0.46
2023-03-28T22:40:56.734Z,-0.49
2023-03-28T22:43:25.459Z,-0.52
2023-03-28T22:45:52.885Z,-0.56
2023-03-28T22:48:20.505Z,-0.58
2023-03-28T22:50:47.845Z,-0.61
2023-03-28T22:53:15.528Z,-0.61
2023-03-28T22:55:44.335Z,-0.58
2023-03-28T22:58:12.353Z,-0.60
2023-03-28T23:00:41.275Z,-0.59
2023-03-28T23:03:08.730Z,-0.53
2023-03-28T23:05:37.219Z,-0.59
2023-03-28T23:08:07.903Z,-0.60
2023-03-28T23:10:35.446Z,-0.67
2023-03-28T23:13:02.614Z,-0.67
2023-03-28T23:15:30.213Z,-0.73
2023-03-28T23:17:58.304Z,-0.65
2023-03-28T23:20:27.244Z,-0.66
2023-03-28T23:22:54.443Z,-0.69
2023-03-28T23:25:22.508Z,-0.62
2023-03-28T23:27:50.070Z,-0.66
2023-03-28T23:30:17.946Z,-0.73
2023-03-28T23:32:45.364Z,-0.66
2023-03-28T23:35:13.265Z,-0.56
2023-03-28T23:37:40.850Z,-0.71
2023-03-28T23:40:13.202Z,-0.64
2023-03-28T23:42:43.096Z,-0.64
2023-03-28T23:45:11.728Z,-0.66
2023-03-28T23:47:39.170Z,-0.64
2023-03-28T23:50:07.199Z,-0.63
2023-03-28T23:52:35.608Z,-0.63
2023-03-28T23:55:02.974Z,-0.67
2023-03-28T23:57:30.868Z,-0.66
2023-03-28T23:59:59.147Z,-0.65
